sensor_id;sensor_type;location;lat;lon;timestamp;P1;durP1;ratioP1;P2;durP2;ratioP2
15806;SDS011;8005;51.368;6.140;2023-04-03T00:01:05;10.73;;;7.00;;
15806;SDS011;8005;51.368;6.140;2023-04-03T00:02:37;10.52;;;6.75;;
15806;SDS011;8005;51.368;6.140;2023-04-03T00:04:09;9.30;;;6.53;;
15806;SDS011;8005;51.368;6.140;2023-04-03T00:05:43;12.65;;;6.65;;
15806;SDS011;8005;51.368;6.140;2023-04-03T00:07:15;10.35;;;7.13;;
15806;SDS011;8005;51.368;6.140;2023-04-03T00:08:47;10.20;;;7.10;;
15806;SDS011;8005;51.368;6.140;2023-04-03T00:10:20;9.95;;;6.32;;
15806;SDS011;8005;51.368;6.140;2023-04-03T00:11:52;11.63;;;5.75;;
15806;SDS011;8005;51.368;6.140;2023-04-03T00:13:24;12.98;;;6.78;;
15806;SDS011;8005;51.368;6.140;2023-04-03T00:14:56;10.30;;;6.57;;
15806;SDS011;8005;51.368;6.140;2023-04-03T00:16:33;14.65;;;6.95;;
15806;SDS011;8005;51.368;6.140;2023-04-03T00:18:05;26.55;;;12.25;;
15806;SDS011;8005;51.368;6.140;2023-04-03T00:19:38;23.23;;;11.73;;
15806;SDS011;8005;51.368;6.140;2023-04-03T00:21:12;21.42;;;10.05;;
15806;SDS011;8005;51.368;6.140;2023-04-03T00:22:44;14.65;;;8.15;;
15806;SDS011;8005;51.368;6.140;2023-04-03T00:24:17;18.27;;;7.80;;
15806;SDS011;8005;51.368;6.140;2023-04-03T00:25:50;13.65;;;7.43;;
15806;SDS011;8005;51.368;6.140;2023-04-03T00:27:25;13.07;;;7.65;;
15806;SDS011;8005;51.368;6.140;2023-04-03T00:28:57;11.18;;;6.43;;
15806;SDS011;8005;51.368;6.140;2023-04-03T00:30:29;11.10;;;6.03;;
15806;SDS011;8005;51.368;6.140;2023-04-03T00:32:02;14.07;;;7.80;;
15806;SDS011;8005;51.368;6.140;2023-04-03T00:33:37;10.75;;;6.32;;
15806;SDS011;8005;51.368;6.140;2023-04-03T00:35:09;7.80;;;6.05;;
15806;SDS011;8005;51.368;6.140;2023-04-03T00:36:46;9.60;;;6.80;;
15806;SDS011;8005;51.368;6.140;2023-04-03T00:38:21;9.85;;;6.65;;
15806;SDS011;8005;51.368;6.140;2023-04-03T00:39:53;11.88;;;7.05;;
15806;SDS011;8005;51.368;6.140;2023-04-03T00:41:30;12.45;;;7.20;;
15806;SDS011;8005;51.368;6.140;2023-04-03T00:43:08;11.25;;;6.88;;
15806;SDS011;8005;51.368;6.140;2023-04-03T00:46:19;11.52;;;6.65;;
15806;SDS011;8005;51.368;6.140;2023-04-03T00:47:51;10.85;;;7.10;;
15806;SDS011;8005;51.368;6.140;2023-04-03T00:49:23;10.93;;;6.95;;
15806;SDS011;8005;51.368;6.140;2023-04-03T00:50:55;10.65;;;6.13;;
15806;SDS011;8005;51.368;6.140;2023-04-03T00:52:28;11.95;;;7.53;;
15806;SDS011;8005;51.368;6.140;2023-04-03T00:54:05;12.80;;;7.68;;
15806;SDS011;8005;51.368;6.140;2023-04-03T00:55:38;11.50;;;7.55;;
15806;SDS011;8005;51.368;6.140;2023-04-03T00:57:13;12.02;;;7.00;;
15806;SDS011;8005;51.368;6.140;2023-04-03T00:58:48;9.65;;;6.18;;
15806;SDS011;8005;51.368;6.140;2023-04-03T01:00:31;10.10;;;6.68;;
15806;SDS011;8005;51.368;6.140;2023-04-03T01:02:03;12.23;;;6.78;;
15806;SDS011;8005;51.368;6.140;2023-04-03T01:03:36;16.70;;;7.38;;
15806;SDS011;8005;51.368;6.140;2023-04-03T01:05:09;10.82;;;7.38;;
15806;SDS011;8005;51.368;6.140;2023-04-03T01:06:42;13.32;;;7.30;;
15806;SDS011;8005;51.368;6.140;2023-04-03T01:08:14;14.50;;;7.78;;
15806;SDS011;8005;51.368;6.140;2023-04-03T01:09:47;15.68;;;7.78;;
15806;SDS011;8005;51.368;6.140;2023-04-03T01:11:20;10.90;;;7.72;;
15806;SDS011;8005;51.368;6.140;2023-04-03T01:12:53;11.55;;;7.22;;
15806;SDS011;8005;51.368;6.140;2023-04-03T01:14:25;10.88;;;7.65;;
15806;SDS011;8005;51.368;6.140;2023-04-03T01:16:00;16.65;;;8.07;;
15806;SDS011;8005;51.368;6.140;2023-04-03T01:19:08;13.05;;;7.90;;
15806;SDS011;8005;51.368;6.140;2023-04-03T01:21:07;14.30;;;8.60;;
15806;SDS011;8005;51.368;6.140;2023-04-03T01:24:38;14.13;;;8.10;;
15806;SDS011;8005;51.368;6.140;2023-04-03T01:26:14;16.80;;;8.13;;
15806;SDS011;8005;51.368;6.140;2023-04-03T01:27:50;14.20;;;8.65;;
15806;SDS011;8005;51.368;6.140;2023-04-03T01:29:22;11.73;;;7.93;;
15806;SDS011;8005;51.368;6.140;2023-04-03T01:32:49;12.55;;;7.97;;
15806;SDS011;8005;51.368;6.140;2023-04-03T01:34:24;11.77;;;8.38;;
15806;SDS011;8005;51.368;6.140;2023-04-03T01:35:57;15.35;;;9.25;;
15806;SDS011;8005;51.368;6.140;2023-04-03T01:37:29;13.02;;;7.88;;
15806;SDS011;8005;51.368;6.140;2023-04-03T01:39:02;12.98;;;8.38;;
15806;SDS011;8005;51.368;6.140;2023-04-03T01:40:34;11.23;;;8.15;;
15806;SDS011;8005;51.368;6.140;2023-04-03T01:42:07;13.18;;;8.88;;
15806;SDS011;8005;51.368;6.140;2023-04-03T01:43:43;11.48;;;7.85;;
15806;SDS011;8005;51.368;6.140;2023-04-03T01:45:15;11.40;;;7.35;;
15806;SDS011;8005;51.368;6.140;2023-04-03T01:46:48;13.48;;;7.72;;
15806;SDS011;8005;51.368;6.140;2023-04-03T01:48:20;14.27;;;7.90;;
15806;SDS011;8005;51.368;6.140;2023-04-03T01:49:53;14.18;;;7.88;;
15806;SDS011;8005;51.368;6.140;2023-04-03T01:51:25;12.27;;;7.57;;
15806;SDS011;8005;51.368;6.140;2023-04-03T01:52:57;12.23;;;7.78;;
15806;SDS011;8005;51.368;6.140;2023-04-03T01:54:29;11.75;;;7.53;;
15806;SDS011;8005;51.368;6.140;2023-04-03T01:56:01;15.15;;;8.35;;
15806;SDS011;8005;51.368;6.140;2023-04-03T01:57:36;22.73;;;9.00;;
15806;SDS011;8005;51.368;6.140;2023-04-03T01:59:11;10.68;;;7.57;;
15806;SDS011;8005;51.368;6.140;2023-04-03T02:00:43;14.85;;;9.90;;
15806;SDS011;8005;51.368;6.140;2023-04-03T02:02:16;11.60;;;7.82;;
15806;SDS011;8005;51.368;6.140;2023-04-03T02:03:48;16.08;;;8.48;;
15806;SDS011;8005;51.368;6.140;2023-04-03T02:05:21;12.05;;;7.70;;
15806;SDS011;8005;51.368;6.140;2023-04-03T02:06:53;10.25;;;7.38;;
15806;SDS011;8005;51.368;6.140;2023-04-03T02:08:26;12.40;;;7.63;;
15806;SDS011;8005;51.368;6.140;2023-04-03T02:09:58;11.93;;;7.30;;
15806;SDS011;8005;51.368;6.140;2023-04-03T02:11:30;11.50;;;7.55;;
15806;SDS011;8005;51.368;6.140;2023-04-03T02:13:02;10.98;;;7.18;;
15806;SDS011;8005;51.368;6.140;2023-04-03T02:14:35;10.25;;;5.85;;
15806;SDS011;8005;51.368;6.140;2023-04-03T02:16:08;12.38;;;6.82;;
15806;SDS011;8005;51.368;6.140;2023-04-03T02:17:41;14.50;;;8.20;;
15806;SDS011;8005;51.368;6.140;2023-04-03T02:19:13;14.95;;;8.45;;
15806;SDS011;8005;51.368;6.140;2023-04-03T02:20:46;16.33;;;8.23;;
15806;SDS011;8005;51.368;6.140;2023-04-03T02:22:18;12.38;;;7.95;;
15806;SDS011;8005;51.368;6.140;2023-04-03T02:25:23;13.48;;;7.82;;
15806;SDS011;8005;51.368;6.140;2023-04-03T02:26:55;11.63;;;5.43;;
15806;SDS011;8005;51.368;6.140;2023-04-03T02:28:28;9.10;;;7.25;;
15806;SDS011;8005;51.368;6.140;2023-04-03T02:30:00;16.40;;;8.15;;
15806;SDS011;8005;51.368;6.140;2023-04-03T02:31:32;12.27;;;7.88;;
15806;SDS011;8005;51.368;6.140;2023-04-03T02:33:05;12.70;;;7.18;;
15806;SDS011;8005;51.368;6.140;2023-04-03T02:34:38;13.95;;;7.50;;
15806;SDS011;8005;51.368;6.140;2023-04-03T02:36:10;12.27;;;7.22;;
15806;SDS011;8005;51.368;6.140;2023-04-03T02:37:46;13.88;;;7.65;;
15806;SDS011;8005;51.368;6.140;2023-04-03T02:39:18;9.45;;;6.95;;
15806;SDS011;8005;51.368;6.140;2023-04-03T02:40:51;10.95;;;7.28;;
15806;SDS011;8005;51.368;6.140;2023-04-03T02:42:23;9.98;;;6.18;;
15806;SDS011;8005;51.368;6.140;2023-04-03T02:43:55;11.27;;;7.30;;
15806;SDS011;8005;51.368;6.140;2023-04-03T02:45:27;13.38;;;6.80;;
15806;SDS011;8005;51.368;6.140;2023-04-03T02:47:00;10.18;;;6.10;;
15806;SDS011;8005;51.368;6.140;2023-04-03T02:48:34;12.65;;;6.15;;
15806;SDS011;8005;51.368;6.140;2023-04-03T02:50:07;12.52;;;6.78;;
15806;SDS011;8005;51.368;6.140;2023-04-03T02:51:39;11.20;;;6.75;;
15806;SDS011;8005;51.368;6.140;2023-04-03T02:53:11;10.70;;;5.90;;
15806;SDS011;8005;51.368;6.140;2023-04-03T02:54:44;8.70;;;5.57;;
15806;SDS011;8005;51.368;6.140;2023-04-03T02:56:16;10.20;;;6.25;;
15806;SDS011;8005;51.368;6.140;2023-04-03T02:57:49;8.38;;;5.35;;
15806;SDS011;8005;51.368;6.140;2023-04-03T02:59:21;21.98;;;6.50;;
15806;SDS011;8005;51.368;6.140;2023-04-03T03:00:54;8.75;;;5.20;;
15806;SDS011;8005;51.368;6.140;2023-04-03T03:02:26;10.00;;;6.15;;
15806;SDS011;8005;51.368;6.140;2023-04-03T03:03:59;13.13;;;6.15;;
15806;SDS011;8005;51.368;6.140;2023-04-03T03:05:32;11.10;;;5.80;;
15806;SDS011;8005;51.368;6.140;2023-04-03T03:07:06;10.10;;;5.35;;
15806;SDS011;8005;51.368;6.140;2023-04-03T03:08:38;10.98;;;5.25;;
15806;SDS011;8005;51.368;6.140;2023-04-03T03:10:13;11.70;;;5.75;;
15806;SDS011;8005;51.368;6.140;2023-04-03T03:11:46;18.83;;;6.55;;
15806;SDS011;8005;51.368;6.140;2023-04-03T03:13:18;9.50;;;4.60;;
15806;SDS011;8005;51.368;6.140;2023-04-03T03:14:50;13.35;;;5.00;;
15806;SDS011;8005;51.368;6.140;2023-04-03T03:16:24;10.00;;;5.40;;
15806;SDS011;8005;51.368;6.140;2023-04-03T03:17:56;9.18;;;4.57;;
15806;SDS011;8005;51.368;6.140;2023-04-03T03:19:31;8.38;;;4.65;;
15806;SDS011;8005;51.368;6.140;2023-04-03T03:21:03;7.40;;;4.70;;
15806;SDS011;8005;51.368;6.140;2023-04-03T03:22:43;11.50;;;3.83;;
15806;SDS011;8005;51.368;6.140;2023-04-03T03:24:15;8.13;;;4.03;;
15806;SDS011;8005;51.368;6.140;2023-04-03T03:25:49;9.27;;;3.92;;
15806;SDS011;8005;51.368;6.140;2023-04-03T03:27:25;7.85;;;4.13;;
15806;SDS011;8005;51.368;6.140;2023-04-03T03:29:00;12.02;;;4.63;;
15806;SDS011;8005;51.368;6.140;2023-04-03T03:30:32;11.85;;;4.53;;
15806;SDS011;8005;51.368;6.140;2023-04-03T03:32:05;6.80;;;3.63;;
15806;SDS011;8005;51.368;6.140;2023-04-03T03:33:37;8.65;;;3.80;;
15806;SDS011;8005;51.368;6.140;2023-04-03T03:35:12;6.78;;;3.78;;
15806;SDS011;8005;51.368;6.140;2023-04-03T03:36:46;6.30;;;3.97;;
15806;SDS011;8005;51.368;6.140;2023-04-03T03:38:19;13.25;;;4.03;;
15806;SDS011;8005;51.368;6.140;2023-04-03T03:39:58;9.48;;;4.10;;
15806;SDS011;8005;51.368;6.140;2023-04-03T03:41:31;10.18;;;4.45;;
15806;SDS011;8005;51.368;6.140;2023-04-03T03:43:04;7.53;;;3.42;;
15806;SDS011;8005;51.368;6.140;2023-04-03T03:44:36;8.00;;;3.80;;
15806;SDS011;8005;51.368;6.140;2023-04-03T03:46:17;7.93;;;3.70;;
15806;SDS011;8005;51.368;6.140;2023-04-03T03:47:49;10.13;;;3.47;;
15806;SDS011;8005;51.368;6.140;2023-04-03T03:49:22;8.05;;;3.72;;
15806;SDS011;8005;51.368;6.140;2023-04-03T03:50:54;9.88;;;3.47;;
15806;SDS011;8005;51.368;6.140;2023-04-03T03:52:30;7.38;;;3.55;;
15806;SDS011;8005;51.368;6.140;2023-04-03T03:54:07;8.50;;;3.65;;
15806;SDS011;8005;51.368;6.140;2023-04-03T03:55:39;7.88;;;3.78;;
15806;SDS011;8005;51.368;6.140;2023-04-03T03:57:12;12.32;;;3.40;;
15806;SDS011;8005;51.368;6.140;2023-04-03T03:58:44;10.88;;;4.13;;
15806;SDS011;8005;51.368;6.140;2023-04-03T04:00:17;5.38;;;3.35;;
15806;SDS011;8005;51.368;6.140;2023-04-03T04:01:55;12.85;;;5.35;;
15806;SDS011;8005;51.368;6.140;2023-04-03T04:03:28;11.95;;;3.88;;
15806;SDS011;8005;51.368;6.140;2023-04-03T04:05:00;12.02;;;4.28;;
15806;SDS011;8005;51.368;6.140;2023-04-03T04:06:32;12.70;;;3.55;;
15806;SDS011;8005;51.368;6.140;2023-04-03T04:08:08;9.70;;;3.55;;
15806;SDS011;8005;51.368;6.140;2023-04-03T04:09:49;14.00;;;2.80;;
15806;SDS011;8005;51.368;6.140;2023-04-03T04:11:22;5.18;;;3.30;;
15806;SDS011;8005;51.368;6.140;2023-04-03T04:12:55;6.45;;;3.60;;
15806;SDS011;8005;51.368;6.140;2023-04-03T04:14:31;10.52;;;3.10;;
15806;SDS011;8005;51.368;6.140;2023-04-03T04:16:04;8.95;;;2.60;;
15806;SDS011;8005;51.368;6.140;2023-04-03T04:17:39;7.55;;;3.22;;
15806;SDS011;8005;51.368;6.140;2023-04-03T04:19:15;8.23;;;3.20;;
15806;SDS011;8005;51.368;6.140;2023-04-03T04:20:48;10.80;;;3.70;;
15806;SDS011;8005;51.368;6.140;2023-04-03T04:22:21;8.02;;;4.00;;
15806;SDS011;8005;51.368;6.140;2023-04-03T04:23:54;9.07;;;4.25;;
15806;SDS011;8005;51.368;6.140;2023-04-03T04:25:27;6.53;;;3.17;;
15806;SDS011;8005;51.368;6.140;2023-04-03T04:27:01;7.60;;;3.42;;
15806;SDS011;8005;51.368;6.140;2023-04-03T04:28:37;8.23;;;3.13;;
15806;SDS011;8005;51.368;6.140;2023-04-03T04:31:46;6.50;;;3.78;;
15806;SDS011;8005;51.368;6.140;2023-04-03T04:33:21;9.82;;;3.08;;
15806;SDS011;8005;51.368;6.140;2023-04-03T04:34:53;6.40;;;2.53;;
15806;SDS011;8005;51.368;6.140;2023-04-03T04:36:31;8.93;;;2.83;;
15806;SDS011;8005;51.368;6.140;2023-04-03T04:38:06;5.45;;;2.50;;
15806;SDS011;8005;51.368;6.140;2023-04-03T04:39:40;8.25;;;2.97;;
15806;SDS011;8005;51.368;6.140;2023-04-03T04:41:13;6.95;;;2.58;;
15806;SDS011;8005;51.368;6.140;2023-04-03T04:42:45;6.93;;;2.42;;
15806;SDS011;8005;51.368;6.140;2023-04-03T04:44:17;5.43;;;1.95;;
15806;SDS011;8005;51.368;6.140;2023-04-03T04:45:59;5.32;;;1.90;;
15806;SDS011;8005;51.368;6.140;2023-04-03T04:47:33;7.00;;;2.55;;
15806;SDS011;8005;51.368;6.140;2023-04-03T04:49:05;6.20;;;2.25;;
15806;SDS011;8005;51.368;6.140;2023-04-03T04:50:37;6.75;;;2.42;;
15806;SDS011;8005;51.368;6.140;2023-04-03T04:52:09;8.10;;;2.70;;
15806;SDS011;8005;51.368;6.140;2023-04-03T04:53:43;11.90;;;2.58;;
15806;SDS011;8005;51.368;6.140;2023-04-03T04:55:18;8.35;;;2.20;;
15806;SDS011;8005;51.368;6.140;2023-04-03T04:56:53;7.95;;;2.60;;
15806;SDS011;8005;51.368;6.140;2023-04-03T04:58:26;6.25;;;2.25;;
15806;SDS011;8005;51.368;6.140;2023-04-03T04:59:58;7.82;;;2.63;;
15806;SDS011;8005;51.368;6.140;2023-04-03T05:01:30;7.28;;;2.67;;
15806;SDS011;8005;51.368;6.140;2023-04-03T05:03:11;5.90;;;2.20;;
15806;SDS011;8005;51.368;6.140;2023-04-03T05:04:43;9.82;;;2.42;;
15806;SDS011;8005;51.368;6.140;2023-04-03T05:06:22;5.40;;;2.42;;
15806;SDS011;8005;51.368;6.140;2023-04-03T05:07:55;12.50;;;2.72;;
15806;SDS011;8005;51.368;6.140;2023-04-03T05:09:28;4.68;;;1.80;;
15806;SDS011;8005;51.368;6.140;2023-04-03T05:11:00;8.15;;;3.65;;
15806;SDS011;8005;51.368;6.140;2023-04-03T05:19:06;8.45;;;2.30;;
15806;SDS011;8005;51.368;6.140;2023-04-03T05:20:55;6.72;;;2.15;;
15806;SDS011;8005;51.368;6.140;2023-04-03T05:24:02;4.90;;;1.65;;
15806;SDS011;8005;51.368;6.140;2023-04-03T05:25:38;4.05;;;1.70;;
15806;SDS011;8005;51.368;6.140;2023-04-03T05:27:12;3.05;;;1.70;;
15806;SDS011;8005;51.368;6.140;2023-04-03T05:28:49;7.95;;;2.30;;
15806;SDS011;8005;51.368;6.140;2023-04-03T05:30:27;8.07;;;2.45;;
15806;SDS011;8005;51.368;6.140;2023-04-03T05:32:10;7.13;;;2.40;;
15806;SDS011;8005;51.368;6.140;2023-04-03T05:34:18;9.52;;;1.80;;
15806;SDS011;8005;51.368;6.140;2023-04-03T05:36:03;6.53;;;1.70;;
15806;SDS011;8005;51.368;6.140;2023-04-03T05:37:45;6.10;;;1.80;;
15806;SDS011;8005;51.368;6.140;2023-04-03T05:39:38;5.35;;;2.05;;
15806;SDS011;8005;51.368;6.140;2023-04-03T05:41:18;6.97;;;2.35;;
15806;SDS011;8005;51.368;6.140;2023-04-03T05:42:56;8.02;;;1.80;;
15806;SDS011;8005;51.368;6.140;2023-04-03T05:44:35;4.95;;;1.67;;
15806;SDS011;8005;51.368;6.140;2023-04-03T05:47:59;6.38;;;1.55;;
15806;SDS011;8005;51.368;6.140;2023-04-03T05:49:57;5.82;;;2.10;;
15806;SDS011;8005;51.368;6.140;2023-04-03T05:51:55;5.88;;;1.75;;
15806;SDS011;8005;51.368;6.140;2023-04-03T05:53:30;6.68;;;2.33;;
15806;SDS011;8005;51.368;6.140;2023-04-03T05:55:07;9.43;;;2.03;;
15806;SDS011;8005;51.368;6.140;2023-04-03T05:56:40;6.63;;;2.05;;
15806;SDS011;8005;51.368;6.140;2023-04-03T05:58:15;5.50;;;1.83;;
15806;SDS011;8005;51.368;6.140;2023-04-03T05:59:53;6.78;;;2.00;;
15806;SDS011;8005;51.368;6.140;2023-04-03T06:01:29;6.78;;;2.50;;
15806;SDS011;8005;51.368;6.140;2023-04-03T06:03:04;8.10;;;2.55;;
15806;SDS011;8005;51.368;6.140;2023-04-03T06:04:38;8.68;;;2.53;;
15806;SDS011;8005;51.368;6.140;2023-04-03T06:06:13;11.57;;;2.05;;
15806;SDS011;8005;51.368;6.140;2023-04-03T06:07:47;8.95;;;2.63;;
15806;SDS011;8005;51.368;6.140;2023-04-03T06:09:22;5.60;;;2.00;;
15806;SDS011;8005;51.368;6.140;2023-04-03T06:10:57;7.45;;;2.30;;
15806;SDS011;8005;51.368;6.140;2023-04-03T06:12:44;8.38;;;2.20;;
15806;SDS011;8005;51.368;6.140;2023-04-03T06:14:17;7.32;;;2.03;;
15806;SDS011;8005;51.368;6.140;2023-04-03T06:15:49;6.78;;;2.80;;
15806;SDS011;8005;51.368;6.140;2023-04-03T06:17:23;10.68;;;1.85;;
15806;SDS011;8005;51.368;6.140;2023-04-03T06:18:57;9.82;;;2.30;;
15806;SDS011;8005;51.368;6.140;2023-04-03T06:20:29;7.82;;;2.35;;
15806;SDS011;8005;51.368;6.140;2023-04-03T06:22:03;8.82;;;2.00;;
15806;SDS011;8005;51.368;6.140;2023-04-03T06:23:38;9.25;;;2.45;;
15806;SDS011;8005;51.368;6.140;2023-04-03T06:25:10;6.43;;;2.00;;
15806;SDS011;8005;51.368;6.140;2023-04-03T06:26:45;4.63;;;1.77;;
15806;SDS011;8005;51.368;6.140;2023-04-03T06:28:17;8.80;;;2.22;;
15806;SDS011;8005;51.368;6.140;2023-04-03T06:29:50;6.30;;;2.45;;
15806;SDS011;8005;51.368;6.140;2023-04-03T06:31:22;10.37;;;2.43;;
15806;SDS011;8005;51.368;6.140;2023-04-03T06:32:55;7.95;;;2.58;;
15806;SDS011;8005;51.368;6.140;2023-04-03T06:34:31;7.40;;;2.15;;
15806;SDS011;8005;51.368;6.140;2023-04-03T06:36:05;14.40;;;2.00;;
15806;SDS011;8005;51.368;6.140;2023-04-03T06:37:38;7.75;;;2.28;;
15806;SDS011;8005;51.368;6.140;2023-04-03T06:39:13;7.55;;;2.63;;
15806;SDS011;8005;51.368;6.140;2023-04-03T06:40:47;8.35;;;2.20;;
15806;SDS011;8005;51.368;6.140;2023-04-03T06:42:19;9.15;;;2.60;;
15806;SDS011;8005;51.368;6.140;2023-04-03T06:44:03;6.13;;;2.00;;
15806;SDS011;8005;51.368;6.140;2023-04-03T06:45:35;14.57;;;4.43;;
15806;SDS011;8005;51.368;6.140;2023-04-03T06:47:09;3.50;;;1.75;;
15806;SDS011;8005;51.368;6.140;2023-04-03T06:48:43;10.75;;;2.88;;
15806;SDS011;8005;51.368;6.140;2023-04-03T06:50:16;7.05;;;2.08;;
15806;SDS011;8005;51.368;6.140;2023-04-03T06:51:48;6.47;;;1.77;;
15806;SDS011;8005;51.368;6.140;2023-04-03T06:53:20;8.77;;;1.92;;
15806;SDS011;8005;51.368;6.140;2023-04-03T06:54:53;11.10;;;2.70;;
15806;SDS011;8005;51.368;6.140;2023-04-03T06:56:31;10.90;;;2.47;;
15806;SDS011;8005;51.368;6.140;2023-04-03T06:58:07;14.65;;;3.25;;
15806;SDS011;8005;51.368;6.140;2023-04-03T06:59:39;9.73;;;2.60;;
15806;SDS011;8005;51.368;6.140;2023-04-03T07:01:17;6.68;;;2.10;;
15806;SDS011;8005;51.368;6.140;2023-04-03T07:02:52;4.38;;;1.90;;
15806;SDS011;8005;51.368;6.140;2023-04-03T07:04:25;11.85;;;2.10;;
15806;SDS011;8005;51.368;6.140;2023-04-03T07:07:30;6.20;;;1.98;;
15806;SDS011;8005;51.368;6.140;2023-04-03T07:09:02;6.60;;;2.90;;
15806;SDS011;8005;51.368;6.140;2023-04-03T07:10:34;6.72;;;2.03;;
15806;SDS011;8005;51.368;6.140;2023-04-03T07:12:06;9.55;;;2.53;;
15806;SDS011;8005;51.368;6.140;2023-04-03T07:13:38;5.50;;;2.13;;
15806;SDS011;8005;51.368;6.140;2023-04-03T07:15:16;6.65;;;2.22;;
15806;SDS011;8005;51.368;6.140;2023-04-03T07:16:48;5.53;;;1.85;;
15806;SDS011;8005;51.368;6.140;2023-04-03T07:18:20;8.30;;;2.95;;
15806;SDS011;8005;51.368;6.140;2023-04-03T07:19:52;3.95;;;1.67;;
15806;SDS011;8005;51.368;6.140;2023-04-03T07:21:27;5.80;;;1.73;;
15806;SDS011;8005;51.368;6.140;2023-04-03T07:22:59;5.05;;;1.95;;
15806;SDS011;8005;51.368;6.140;2023-04-03T07:24:33;6.45;;;1.73;;
15806;SDS011;8005;51.368;6.140;2023-04-03T07:26:06;8.52;;;2.15;;
15806;SDS011;8005;51.368;6.140;2023-04-03T07:27:39;18.13;;;3.15;;
15806;SDS011;8005;51.368;6.140;2023-04-03T07:29:11;11.52;;;2.47;;
15806;SDS011;8005;51.368;6.140;2023-04-03T07:30:44;6.53;;;2.10;;
15806;SDS011;8005;51.368;6.140;2023-04-03T07:32:17;6.55;;;2.08;;
15806;SDS011;8005;51.368;6.140;2023-04-03T07:33:50;9.30;;;2.35;;
15806;SDS011;8005;51.368;6.140;2023-04-03T07:35:28;7.10;;;2.65;;
15806;SDS011;8005;51.368;6.140;2023-04-03T07:37:03;10.82;;;2.53;;
15806;SDS011;8005;51.368;6.140;2023-04-03T07:38:47;8.38;;;2.58;;
15806;SDS011;8005;51.368;6.140;2023-04-03T07:40:19;4.75;;;2.22;;
15806;SDS011;8005;51.368;6.140;2023-04-03T07:41:51;8.10;;;3.00;;
15806;SDS011;8005;51.368;6.140;2023-04-03T07:43:26;6.63;;;2.33;;
15806;SDS011;8005;51.368;6.140;2023-04-03T07:44:59;8.75;;;2.00;;
15806;SDS011;8005;51.368;6.140;2023-04-03T07:46:34;7.60;;;2.53;;
15806;SDS011;8005;51.368;6.140;2023-04-03T07:48:07;9.13;;;2.47;;
15806;SDS011;8005;51.368;6.140;2023-04-03T07:49:44;5.53;;;2.42;;
15806;SDS011;8005;51.368;6.140;2023-04-03T07:51:23;8.63;;;3.05;;
15806;SDS011;8005;51.368;6.140;2023-04-03T07:53:08;10.25;;;2.80;;
15806;SDS011;8005;51.368;6.140;2023-04-03T07:55:17;7.45;;;2.60;;
15806;SDS011;8005;51.368;6.140;2023-04-03T07:57:57;10.07;;;2.63;;
15806;SDS011;8005;51.368;6.140;2023-04-03T08:01:28;5.55;;;2.30;;
15806;SDS011;8005;51.368;6.140;2023-04-03T08:03:59;6.55;;;1.80;;
15806;SDS011;8005;51.368;6.140;2023-04-03T08:05:37;6.05;;;2.35;;
15806;SDS011;8005;51.368;6.140;2023-04-03T08:09:38;6.13;;;1.80;;
15806;SDS011;8005;51.368;6.140;2023-04-03T08:13:26;7.05;;;1.67;;
15806;SDS011;8005;51.368;6.140;2023-04-03T08:15:14;9.25;;;1.92;;
15806;SDS011;8005;51.368;6.140;2023-04-03T08:17:27;6.38;;;2.72;;
15806;SDS011;8005;51.368;6.140;2023-04-03T08:19:20;9.48;;;1.85;;
15806;SDS011;8005;51.368;6.140;2023-04-03T08:21:47;7.47;;;1.73;;
15806;SDS011;8005;51.368;6.140;2023-04-03T08:31:38;4.30;;;2.38;;
15806;SDS011;8005;51.368;6.140;2023-04-03T08:33:33;6.32;;;1.42;;
15806;SDS011;8005;51.368;6.140;2023-04-03T08:47:54;5.10;;;1.98;;
15806;SDS011;8005;51.368;6.140;2023-04-03T08:49:48;8.05;;;1.58;;
15806;SDS011;8005;51.368;6.140;2023-04-03T08:51:25;4.35;;;1.10;;
15806;SDS011;8005;51.368;6.140;2023-04-03T08:53:25;5.40;;;1.23;;
15806;SDS011;8005;51.368;6.140;2023-04-03T09:02:23;4.85;;;1.27;;
15806;SDS011;8005;51.368;6.140;2023-04-03T09:04:36;6.22;;;1.33;;
15806;SDS011;8005;51.368;6.140;2023-04-03T09:09:50;4.28;;;1.02;;
15806;SDS011;8005;51.368;6.140;2023-04-03T09:13:43;5.43;;;1.50;;
15806;SDS011;8005;51.368;6.140;2023-04-03T09:15:21;5.40;;;1.45;;
15806;SDS011;8005;51.368;6.140;2023-04-03T09:17:12;5.63;;;1.75;;
15806;SDS011;8005;51.368;6.140;2023-04-03T09:18:47;7.32;;;1.50;;
15806;SDS011;8005;51.368;6.140;2023-04-03T09:20:33;6.78;;;1.45;;
15806;SDS011;8005;51.368;6.140;2023-04-03T09:23:52;4.35;;;1.20;;
15806;SDS011;8005;51.368;6.140;2023-04-03T09:25:32;4.72;;;1.65;;
15806;SDS011;8005;51.368;6.140;2023-04-03T09:27:08;3.97;;;1.58;;
15806;SDS011;8005;51.368;6.140;2023-04-03T09:28:44;5.10;;;1.30;;
15806;SDS011;8005;51.368;6.140;2023-04-03T09:30:22;6.68;;;1.42;;
15806;SDS011;8005;51.368;6.140;2023-04-03T09:31:56;3.97;;;1.10;;
15806;SDS011;8005;51.368;6.140;2023-04-03T09:33:31;6.78;;;2.03;;
15806;SDS011;8005;51.368;6.140;2023-04-03T09:35:04;6.17;;;1.03;;
15806;SDS011;8005;51.368;6.140;2023-04-03T09:36:58;3.65;;;1.00;;
15806;SDS011;8005;51.368;6.140;2023-04-03T09:38:37;5.78;;;1.15;;
15806;SDS011;8005;51.368;6.140;2023-04-03T09:43:31;6.00;;;1.50;;
15806;SDS011;8005;51.368;6.140;2023-04-03T09:45:05;3.78;;;1.25;;
15806;SDS011;8005;51.368;6.140;2023-04-03T09:46:39;4.85;;;0.70;;
15806;SDS011;8005;51.368;6.140;2023-04-03T09:49:47;4.18;;;0.68;;
15806;SDS011;8005;51.368;6.140;2023-04-03T09:51:19;4.18;;;0.77;;
15806;SDS011;8005;51.368;6.140;2023-04-03T09:52:57;4.63;;;1.02;;
15806;SDS011;8005;51.368;6.140;2023-04-03T09:54:31;5.13;;;1.05;;
15806;SDS011;8005;51.368;6.140;2023-04-03T09:57:48;4.60;;;1.38;;
15806;SDS011;8005;51.368;6.140;2023-04-03T09:59:26;3.50;;;0.75;;
15806;SDS011;8005;51.368;6.140;2023-04-03T10:00:59;5.28;;;1.17;;
15806;SDS011;8005;51.368;6.140;2023-04-03T10:04:07;1.33;;;0.50;;
15806;SDS011;8005;51.368;6.140;2023-04-03T10:05:44;2.92;;;0.70;;
15806;SDS011;8005;51.368;6.140;2023-04-03T10:07:32;1.00;;;0.40;;
15806;SDS011;8005;51.368;6.140;2023-04-03T10:09:32;2.15;;;0.50;;
15806;SDS011;8005;51.368;6.140;2023-04-03T10:12:03;3.72;;;0.50;;
15806;SDS011;8005;51.368;6.140;2023-04-03T10:13:52;3.03;;;0.60;;
15806;SDS011;8005;51.368;6.140;2023-04-03T10:15:59;1.45;;;0.40;;
15806;SDS011;8005;51.368;6.140;2023-04-03T10:18:02;3.63;;;0.52;;
15806;SDS011;8005;51.368;6.140;2023-04-03T10:19:58;1.98;;;0.50;;
15806;SDS011;8005;51.368;6.140;2023-04-03T10:21:51;3.10;;;0.60;;
15806;SDS011;8005;51.368;6.140;2023-04-03T10:23:51;1.52;;;0.85;;
15806;SDS011;8005;51.368;6.140;2023-04-03T10:28:54;3.45;;;0.75;;
15806;SDS011;8005;51.368;6.140;2023-04-03T10:34:50;3.20;;;0.75;;
15806;SDS011;8005;51.368;6.140;2023-04-03T10:42:40;5.90;;;0.55;;
15806;SDS011;8005;51.368;6.140;2023-04-03T10:46:23;2.80;;;0.60;;
15806;SDS011;8005;51.368;6.140;2023-04-03T10:48:11;3.05;;;0.52;;
15806;SDS011;8005;51.368;6.140;2023-04-03T10:49:55;1.80;;;0.50;;
15806;SDS011;8005;51.368;6.140;2023-04-03T10:56:48;3.05;;;0.60;;
15806;SDS011;8005;51.368;6.140;2023-04-03T11:00:33;1.90;;;0.45;;
15806;SDS011;8005;51.368;6.140;2023-04-03T11:02:12;2.03;;;0.52;;
15806;SDS011;8005;51.368;6.140;2023-04-03T11:03:55;2.03;;;0.52;;
15806;SDS011;8005;51.368;6.140;2023-04-03T11:05:31;2.70;;;0.55;;
15806;SDS011;8005;51.368;6.140;2023-04-03T11:08:51;3.42;;;0.60;;
15806;SDS011;8005;51.368;6.140;2023-04-03T11:10:47;1.52;;;0.30;;
15806;SDS011;8005;51.368;6.140;2023-04-03T11:13:58;1.55;;;0.30;;
15806;SDS011;8005;51.368;6.140;2023-04-03T11:15:32;2.22;;;0.50;;
15806;SDS011;8005;51.368;6.140;2023-04-03T11:17:15;2.30;;;0.30;;
15806;SDS011;8005;51.368;6.140;2023-04-03T11:19:22;1.08;;;0.28;;
15806;SDS011;8005;51.368;6.140;2023-04-03T11:21:00;0.75;;;0.30;;
15806;SDS011;8005;51.368;6.140;2023-04-03T11:22:37;2.40;;;0.45;;
15806;SDS011;8005;51.368;6.140;2023-04-03T11:24:31;1.52;;;0.30;;
15806;SDS011;8005;51.368;6.140;2023-04-03T11:26:09;3.22;;;0.40;;
15806;SDS011;8005;51.368;6.140;2023-04-03T11:27:43;3.47;;;0.70;;